Weather at Seward Airport

Public forecast

Using degrees Fahrenheit for public forecast. Weather courtesy of forecast.io.

Current aviation weather report (METAR) for Seward Airport

Retrieved 2021/05/14 18:53 UTC (58 minutes ago):

PAWD 141853Z AUTO 19006KT 10SM OVC055 08/04 A2995 RMK AO2 SLP140 T00830039 TSNO

Closest aviation forecast (TAF) to Seward Airport

Closest forecast is Kenai Municipal Airport, 60.4 nm (111.9 km) WNW. Retrieved 2021/05/14 18:48 UTC (1 hour ago):

TAF PAEN 141747Z 1418/1518 01008KT P6SM SCT080 FM150300 10012KT P6SM BKN100 FM151000 10006KT P6SM OVC050